EST,Max TemperatureF,Mean TemperatureF,Min TemperatureF,Max Dew PointF,MeanDew PointF,Min DewpointF,Max Humidity, Mean Humidity, Min Humidity, Max Sea Level PressureIn, Mean Sea Level PressureIn, Min Sea Level PressureIn, Max VisibilityMiles, Mean VisibilityMiles, Min VisibilityMiles, Max Wind SpeedMPH, Mean Wind SpeedMPH, Max Gust SpeedMPH,PrecipitationIn, CloudCover, Events, WindDirDegrees
2014-1-1,39,32,24,23,18,10,72,56,45,30.45,30.35,30.23,10,10,10,9,3,,0.00,2,,130
2014-1-2,34,28,21,26,23,18,93,81,67,30.19,29.86,29.67,10,5,0,18,11,22,0.44,8,Fog-Snow,37
2014-1-3,21,14,8,18,7,-5,86,68,41,30.51,30.00,29.64,10,4,1,26,16,36,0.13,4,Snow,343
2014-1-4,30,16,3,14,6,-2,84,65,40,30.57,30.46,30.32,10,10,8,10,2,16,0.00,0,,214
2014-1-5,46,28,14,45,29,12,97,90,80,30.33,30.18,29.75,9,3,0,8,2,,0.24,8,Fog-Rain,62
2014-1-6,62,40,12,58,39,-10,100,77,35,29.94,29.61,29.43,10,8,0,26,12,43,0.43,6,Fog-Rain,255
2014-1-7,12,8,3,-5,-10,-15,49,43,38,30.46,30.27,29.97,10,10,10,23,18,41,0.00,0,,277
2014-1-8,25,18,10,9,0,-4,58,45,31,30.61,30.55,30.47,10,10,10,12,6,,0.00,2,,275
2014-1-9,35,29,23,17,12,10,63,51,38,30.70,30.62,30.53,10,10,10,10,2,,0.00,2,,16
2014-1-10,37,32,28,36,29,19,97,84,66,30.58,30.44,30.20,10,4,1,6,3,,0.33,8,Rain-Snow,44
2014-1-11,64,50,37,63,53,37,100,93,83,30.16,29.73,29.38,10,5,0,14,7,26,0.79,8,Fog-Rain,204
2014-1-12,53,43,33,52,32,27,94,65,51,30.14,29.82,29.48,10,10,10,18,12,30,0.00,5,Rain,289
2014-1-13,59,43,27,37,31,24,92,64,36,30.15,30.05,29.90,10,8,3,12,4,22,0.01,0,,201
2014-1-14,52,47,42,47,44,38,93,85,59,29.90,29.79,29.71,10,7,2,14,6,23,0.18,7,Rain,249
2014-1-15,53,44,35,44,38,34,100,88,61,30.02,29.95,29.90,10,4,0,12,4,,0.00,6,Fog,290
2014-1-16,39,34,28,33,26,19,79,67,55,29.99,29.94,29.88,10,9,2,13,7,,0.00,6,Snow,303
2014-1-17,46,34,23,29,25,18,85,68,48,30.01,29.95,29.87,10,9,5,9,2,,0.00,0,,126
2014-1-18,39,32,23,33,23,9,89,68,49,29.96,29.82,29.74,10,8,0,21,9,28,0.02,4,Rain-Snow,302
2014-1-19,42,32,21,23,17,10,63,54,45,29.93,29.81,29.72,10,10,10,17,9,24,0.00,3,,247
2014-1-20,51,44,36,28,26,21,65,54,36,29.91,29.74,29.63,10,10,10,18,8,29,0.00,3,,254
2014-1-21,35,24,14,25,14,8,86,76,49,29.98,29.91,29.85,10,3,0,21,13,26,0.41,6,Fog-Snow,30
2014-1-22,16,10,3,3,-5,-11,62,49,38,30.07,29.93,29.84,10,9,2,20,15,31,0.00,1,,324
2014-1-23,21,14,7,8,1,-4,62,53,44,30.36,30.22,30.08,10,10,6,18,8,24,0.00,1,Snow,282
2014-1-24,19,14,10,3,0,-2,59,50,41,30.47,30.35,30.12,10,10,10,18,10,28,0.00,0,,267
2014-1-25,28,23,19,23,15,2,86,70,44,30.06,29.64,29.49,10,6,0,20,11,30,0.12,5,Fog-Snow,217
2014-1-26,28,22,17,18,8,-1,72,54,37,29.96,29.85,29.59,10,10,9,17,10,26,0.00,4,,262
2014-1-27,44,32,21,29,14,-1,75,53,34,30.16,29.84,29.65,10,10,10,22,8,36,0.00,3,,297
2014-1-28,19,16,12,2,-4,-6,59,41,36,30.44,30.34,30.18,10,10,4,17,11,25,0.00,4,Snow,316
2014-1-29,21,16,12,8,1,-7,81,55,34,30.36,30.25,30.19,10,7,2,16,8,21,0.07,3,Snow,298
2014-1-30,28,18,9,10,3,-2,70,49,33,30.51,30.39,30.24,10,10,10,7,3,,0.00,0,,264
2014-1-31,44,34,23,24,17,13,75,53,31,30.27,30.19,30.14,10,10,8,12,3,,0.00,2,,286